sensor_id;sensor_type;location;lat;lon;timestamp;P1;durP1;ratioP1;P2;durP2;ratioP2
14847;SDS011;7516;43.570;1.448;2022-08-21T00:00:57;1.00;;;0.70;;
14847;SDS011;7516;43.570;1.448;2022-08-21T00:03:27;2.28;;;0.90;;
14847;SDS011;7516;43.570;1.448;2022-08-21T00:05:55;1.27;;;0.70;;
14847;SDS011;7516;43.570;1.448;2022-08-21T00:08:22;1.55;;;0.90;;
14847;SDS011;7516;43.570;1.448;2022-08-21T00:10:51;0.90;;;0.88;;
14847;SDS011;7516;43.570;1.448;2022-08-21T00:13:19;0.77;;;0.77;;
14847;SDS011;7516;43.570;1.448;2022-08-21T00:15:47;0.73;;;0.73;;
14847;SDS011;7516;43.570;1.448;2022-08-21T00:18:17;1.08;;;0.88;;
14847;SDS011;7516;43.570;1.448;2022-08-21T00:20:45;1.17;;;0.80;;
14847;SDS011;7516;43.570;1.448;2022-08-21T00:23:13;0.70;;;0.68;;
14847;SDS011;7516;43.570;1.448;2022-08-21T00:25:41;0.82;;;0.60;;
14847;SDS011;7516;43.570;1.448;2022-08-21T00:28:12;1.00;;;0.82;;
14847;SDS011;7516;43.570;1.448;2022-08-21T00:30:39;2.47;;;0.70;;
14847;SDS011;7516;43.570;1.448;2022-08-21T00:33:08;1.15;;;0.70;;
14847;SDS011;7516;43.570;1.448;2022-08-21T00:35:38;0.77;;;0.70;;
14847;SDS011;7516;43.570;1.448;2022-08-21T00:38:07;1.20;;;0.80;;
14847;SDS011;7516;43.570;1.448;2022-08-21T00:40:35;1.75;;;0.75;;
14847;SDS011;7516;43.570;1.448;2022-08-21T00:43:07;0.80;;;0.60;;
14847;SDS011;7516;43.570;1.448;2022-08-21T00:45:38;1.73;;;0.77;;
14847;SDS011;7516;43.570;1.448;2022-08-21T00:48:06;0.57;;;0.57;;
14847;SDS011;7516;43.570;1.448;2022-08-21T00:50:35;0.70;;;0.60;;
14847;SDS011;7516;43.570;1.448;2022-08-21T00:53:08;0.80;;;0.80;;
14847;SDS011;7516;43.570;1.448;2022-08-21T00:55:38;0.70;;;0.70;;
14847;SDS011;7516;43.570;1.448;2022-08-21T00:58:07;1.52;;;0.73;;
14847;SDS011;7516;43.570;1.448;2022-08-21T01:00:39;0.88;;;0.82;;
14847;SDS011;7516;43.570;1.448;2022-08-21T01:03:09;0.75;;;0.70;;
14847;SDS011;7516;43.570;1.448;2022-08-21T01:05:39;1.27;;;0.93;;
14847;SDS011;7516;43.570;1.448;2022-08-21T01:08:07;1.08;;;0.93;;
14847;SDS011;7516;43.570;1.448;2022-08-21T01:10:36;2.30;;;1.40;;
14847;SDS011;7516;43.570;1.448;2022-08-21T01:13:05;2.60;;;1.60;;
14847;SDS011;7516;43.570;1.448;2022-08-21T01:15:35;3.92;;;1.33;;
14847;SDS011;7516;43.570;1.448;2022-08-21T01:18:08;1.40;;;1.30;;
14847;SDS011;7516;43.570;1.448;2022-08-21T01:20:38;1.50;;;1.17;;
14847;SDS011;7516;43.570;1.448;2022-08-21T01:23:10;2.17;;;1.00;;
14847;SDS011;7516;43.570;1.448;2022-08-21T01:25:37;1.33;;;1.10;;
14847;SDS011;7516;43.570;1.448;2022-08-21T01:28:07;2.42;;;1.15;;
14847;SDS011;7516;43.570;1.448;2022-08-21T01:30:39;1.23;;;1.05;;
14847;SDS011;7516;43.570;1.448;2022-08-21T01:33:08;1.17;;;0.95;;
14847;SDS011;7516;43.570;1.448;2022-08-21T01:35:36;1.50;;;1.20;;
14847;SDS011;7516;43.570;1.448;2022-08-21T01:38:04;0.95;;;0.90;;
14847;SDS011;7516;43.570;1.448;2022-08-21T01:40:33;0.90;;;0.90;;
14847;SDS011;7516;43.570;1.448;2022-08-21T01:43:01;2.38;;;0.90;;
14847;SDS011;7516;43.570;1.448;2022-08-21T01:45:29;2.08;;;0.93;;
14847;SDS011;7516;43.570;1.448;2022-08-21T01:47:57;1.00;;;0.82;;
14847;SDS011;7516;43.570;1.448;2022-08-21T01:50:24;1.00;;;0.90;;
14847;SDS011;7516;43.570;1.448;2022-08-21T01:52:52;1.10;;;1.00;;
14847;SDS011;7516;43.570;1.448;2022-08-21T01:55:19;1.15;;;0.90;;
14847;SDS011;7516;43.570;1.448;2022-08-21T01:57:48;0.88;;;0.80;;
14847;SDS011;7516;43.570;1.448;2022-08-21T02:00:17;1.60;;;0.80;;
14847;SDS011;7516;43.570;1.448;2022-08-21T02:02:48;1.10;;;0.80;;
14847;SDS011;7516;43.570;1.448;2022-08-21T02:05:16;1.00;;;0.90;;
14847;SDS011;7516;43.570;1.448;2022-08-21T02:07:46;1.35;;;0.90;;
14847;SDS011;7516;43.570;1.448;2022-08-21T02:10:16;1.30;;;0.82;;
14847;SDS011;7516;43.570;1.448;2022-08-21T02:12:45;1.48;;;0.80;;
14847;SDS011;7516;43.570;1.448;2022-08-21T02:15:14;1.50;;;0.80;;
14847;SDS011;7516;43.570;1.448;2022-08-21T02:17:43;1.38;;;0.85;;
14847;SDS011;7516;43.570;1.448;2022-08-21T02:20:14;1.10;;;1.00;;
14847;SDS011;7516;43.570;1.448;2022-08-21T02:22:44;1.00;;;0.90;;
14847;SDS011;7516;43.570;1.448;2022-08-21T02:25:11;1.95;;;0.80;;
14847;SDS011;7516;43.570;1.448;2022-08-21T02:27:39;0.75;;;0.70;;
14847;SDS011;7516;43.570;1.448;2022-08-21T02:30:08;0.80;;;0.80;;
14847;SDS011;7516;43.570;1.448;2022-08-21T02:32:39;1.23;;;1.00;;
14847;SDS011;7516;43.570;1.448;2022-08-21T02:35:07;1.23;;;0.90;;
14847;SDS011;7516;43.570;1.448;2022-08-21T02:37:42;1.00;;;0.90;;
14847;SDS011;7516;43.570;1.448;2022-08-21T02:40:11;1.42;;;0.82;;
14847;SDS011;7516;43.570;1.448;2022-08-21T02:42:39;1.02;;;0.90;;
14847;SDS011;7516;43.570;1.448;2022-08-21T02:45:09;1.05;;;0.90;;
14847;SDS011;7516;43.570;1.448;2022-08-21T02:47:37;1.00;;;0.90;;
14847;SDS011;7516;43.570;1.448;2022-08-21T02:50:07;1.17;;;0.90;;
14847;SDS011;7516;43.570;1.448;2022-08-21T02:52:34;0.82;;;0.70;;
14847;SDS011;7516;43.570;1.448;2022-08-21T02:55:02;1.92;;;0.85;;
14847;SDS011;7516;43.570;1.448;2022-08-21T02:57:30;1.10;;;0.90;;
14847;SDS011;7516;43.570;1.448;2022-08-21T02:59:58;1.65;;;1.00;;
14847;SDS011;7516;43.570;1.448;2022-08-21T03:02:25;1.35;;;0.90;;
14847;SDS011;7516;43.570;1.448;2022-08-21T03:04:54;1.30;;;1.00;;
14847;SDS011;7516;43.570;1.448;2022-08-21T03:07:22;1.08;;;0.93;;
14847;SDS011;7516;43.570;1.448;2022-08-21T03:09:49;1.17;;;1.00;;
14847;SDS011;7516;43.570;1.448;2022-08-21T03:12:17;1.65;;;0.80;;
14847;SDS011;7516;43.570;1.448;2022-08-21T03:14:44;1.17;;;0.70;;
14847;SDS011;7516;43.570;1.448;2022-08-21T03:17:12;0.80;;;0.80;;
14847;SDS011;7516;43.570;1.448;2022-08-21T03:19:39;1.15;;;0.90;;
14847;SDS011;7516;43.570;1.448;2022-08-21T03:22:08;0.82;;;0.80;;
14847;SDS011;7516;43.570;1.448;2022-08-21T03:24:35;0.98;;;0.80;;
14847;SDS011;7516;43.570;1.448;2022-08-21T03:27:03;1.20;;;1.00;;
14847;SDS011;7516;43.570;1.448;2022-08-21T03:29:31;1.05;;;0.70;;
14847;SDS011;7516;43.570;1.448;2022-08-21T03:31:58;1.20;;;0.77;;
14847;SDS011;7516;43.570;1.448;2022-08-21T03:34:25;0.88;;;0.70;;
14847;SDS011;7516;43.570;1.448;2022-08-21T03:36:53;1.30;;;0.82;;
14847;SDS011;7516;43.570;1.448;2022-08-21T03:39:22;1.58;;;0.75;;
14847;SDS011;7516;43.570;1.448;2022-08-21T03:41:50;1.58;;;0.60;;
14847;SDS011;7516;43.570;1.448;2022-08-21T03:44:18;0.98;;;0.70;;
14847;SDS011;7516;43.570;1.448;2022-08-21T03:46:45;1.02;;;0.88;;
14847;SDS011;7516;43.570;1.448;2022-08-21T03:49:13;1.00;;;0.80;;
14847;SDS011;7516;43.570;1.448;2022-08-21T03:51:41;0.70;;;0.70;;
14847;SDS011;7516;43.570;1.448;2022-08-21T03:54:08;0.95;;;0.85;;
14847;SDS011;7516;43.570;1.448;2022-08-21T03:56:37;1.05;;;0.82;;
14847;SDS011;7516;43.570;1.448;2022-08-21T03:59:05;2.13;;;0.82;;
14847;SDS011;7516;43.570;1.448;2022-08-21T04:01:33;0.95;;;0.75;;
14847;SDS011;7516;43.570;1.448;2022-08-21T04:04:01;0.88;;;0.70;;
14847;SDS011;7516;43.570;1.448;2022-08-21T04:06:29;0.63;;;0.60;;
14847;SDS011;7516;43.570;1.448;2022-08-21T04:08:57;2.83;;;0.90;;
14847;SDS011;7516;43.570;1.448;2022-08-21T04:11:24;1.35;;;0.77;;
14847;SDS011;7516;43.570;1.448;2022-08-21T04:13:53;1.90;;;0.90;;
14847;SDS011;7516;43.570;1.448;2022-08-21T04:16:21;0.88;;;0.88;;
14847;SDS011;7516;43.570;1.448;2022-08-21T04:18:48;0.68;;;0.60;;
14847;SDS011;7516;43.570;1.448;2022-08-21T04:21:16;0.75;;;0.68;;
14847;SDS011;7516;43.570;1.448;2022-08-21T04:23:43;1.23;;;0.90;;
14847;SDS011;7516;43.570;1.448;2022-08-21T04:26:11;1.83;;;0.90;;
14847;SDS011;7516;43.570;1.448;2022-08-21T04:28:38;1.17;;;0.70;;
14847;SDS011;7516;43.570;1.448;2022-08-21T04:31:07;0.95;;;0.80;;
14847;SDS011;7516;43.570;1.448;2022-08-21T04:33:35;1.00;;;0.63;;
14847;SDS011;7516;43.570;1.448;2022-08-21T04:36:03;0.70;;;0.70;;
14847;SDS011;7516;43.570;1.448;2022-08-21T04:38:31;1.33;;;0.63;;
14847;SDS011;7516;43.570;1.448;2022-08-21T04:40:59;1.17;;;0.90;;
14847;SDS011;7516;43.570;1.448;2022-08-21T04:43:26;3.55;;;0.70;;
14847;SDS011;7516;43.570;1.448;2022-08-21T04:45:54;1.60;;;0.77;;
14847;SDS011;7516;43.570;1.448;2022-08-21T04:48:23;1.00;;;0.75;;
14847;SDS011;7516;43.570;1.448;2022-08-21T04:50:52;1.40;;;0.85;;
14847;SDS011;7516;43.570;1.448;2022-08-21T04:53:24;0.85;;;0.80;;
14847;SDS011;7516;43.570;1.448;2022-08-21T04:55:56;1.20;;;0.85;;
14847;SDS011;7516;43.570;1.448;2022-08-21T04:58:26;0.80;;;0.80;;
14847;SDS011;7516;43.570;1.448;2022-08-21T05:00:58;0.93;;;0.70;;
14847;SDS011;7516;43.570;1.448;2022-08-21T05:03:29;1.00;;;0.90;;
14847;SDS011;7516;43.570;1.448;2022-08-21T05:05:59;1.15;;;0.70;;
14847;SDS011;7516;43.570;1.448;2022-08-21T05:08:29;1.50;;;0.73;;
14847;SDS011;7516;43.570;1.448;2022-08-21T05:10:57;0.88;;;0.88;;
14847;SDS011;7516;43.570;1.448;2022-08-21T05:13:24;0.90;;;0.60;;
14847;SDS011;7516;43.570;1.448;2022-08-21T05:15:52;0.70;;;0.70;;
14847;SDS011;7516;43.570;1.448;2022-08-21T05:18:19;0.65;;;0.65;;
14847;SDS011;7516;43.570;1.448;2022-08-21T05:20:48;1.13;;;0.80;;
14847;SDS011;7516;43.570;1.448;2022-08-21T05:23:16;0.77;;;0.70;;
14847;SDS011;7516;43.570;1.448;2022-08-21T05:25:43;0.80;;;0.80;;
14847;SDS011;7516;43.570;1.448;2022-08-21T05:28:11;0.80;;;0.70;;
14847;SDS011;7516;43.570;1.448;2022-08-21T05:30:39;0.50;;;0.50;;
14847;SDS011;7516;43.570;1.448;2022-08-21T05:33:06;0.77;;;0.77;;
14847;SDS011;7516;43.570;1.448;2022-08-21T05:35:35;0.98;;;0.70;;
14847;SDS011;7516;43.570;1.448;2022-08-21T05:38:05;1.02;;;0.90;;
14847;SDS011;7516;43.570;1.448;2022-08-21T05:40:32;1.23;;;0.90;;
14847;SDS011;7516;43.570;1.448;2022-08-21T05:43:00;0.82;;;0.70;;
14847;SDS011;7516;43.570;1.448;2022-08-21T05:45:29;0.80;;;0.80;;
14847;SDS011;7516;43.570;1.448;2022-08-21T05:48:04;1.27;;;0.88;;
14847;SDS011;7516;43.570;1.448;2022-08-21T05:50:33;0.77;;;0.70;;
14847;SDS011;7516;43.570;1.448;2022-08-21T05:53:02;0.82;;;0.80;;
14847;SDS011;7516;43.570;1.448;2022-08-21T05:55:31;0.80;;;0.80;;
14847;SDS011;7516;43.570;1.448;2022-08-21T05:57:58;1.10;;;0.88;;
14847;SDS011;7516;43.570;1.448;2022-08-21T06:00:26;1.00;;;0.70;;
14847;SDS011;7516;43.570;1.448;2022-08-21T06:02:53;0.80;;;0.80;;
14847;SDS011;7516;43.570;1.448;2022-08-21T06:05:21;1.30;;;0.93;;
14847;SDS011;7516;43.570;1.448;2022-08-21T06:07:49;0.95;;;0.70;;
14847;SDS011;7516;43.570;1.448;2022-08-21T06:10:18;0.90;;;0.70;;
14847;SDS011;7516;43.570;1.448;2022-08-21T06:12:45;1.58;;;0.90;;
14847;SDS011;7516;43.570;1.448;2022-08-21T06:15:18;1.20;;;0.90;;
14847;SDS011;7516;43.570;1.448;2022-08-21T06:17:46;0.80;;;0.70;;
14847;SDS011;7516;43.570;1.448;2022-08-21T06:20:13;1.83;;;0.70;;
14847;SDS011;7516;43.570;1.448;2022-08-21T06:22:41;1.00;;;0.80;;
14847;SDS011;7516;43.570;1.448;2022-08-21T06:25:08;0.80;;;0.80;;
14847;SDS011;7516;43.570;1.448;2022-08-21T06:27:37;1.23;;;0.80;;
14847;SDS011;7516;43.570;1.448;2022-08-21T06:30:05;1.13;;;0.90;;
14847;SDS011;7516;43.570;1.448;2022-08-21T06:32:34;0.93;;;0.75;;
14847;SDS011;7516;43.570;1.448;2022-08-21T06:35:02;0.80;;;0.80;;
14847;SDS011;7516;43.570;1.448;2022-08-21T06:37:30;1.52;;;0.98;;
14847;SDS011;7516;43.570;1.448;2022-08-21T06:39:58;1.45;;;1.05;;
14847;SDS011;7516;43.570;1.448;2022-08-21T06:42:25;2.72;;;0.75;;
14847;SDS011;7516;43.570;1.448;2022-08-21T06:44:54;2.60;;;0.90;;
14847;SDS011;7516;43.570;1.448;2022-08-21T06:47:23;1.17;;;0.90;;
14847;SDS011;7516;43.570;1.448;2022-08-21T06:49:51;1.75;;;1.08;;
14847;SDS011;7516;43.570;1.448;2022-08-21T06:52:19;0.93;;;0.73;;
14847;SDS011;7516;43.570;1.448;2022-08-21T06:54:46;0.80;;;0.80;;
14847;SDS011;7516;43.570;1.448;2022-08-21T06:57:14;1.25;;;0.90;;
14847;SDS011;7516;43.570;1.448;2022-08-21T06:59:42;1.10;;;1.00;;
14847;SDS011;7516;43.570;1.448;2022-08-21T07:02:11;1.15;;;0.98;;
14847;SDS011;7516;43.570;1.448;2022-08-21T07:04:39;1.13;;;0.80;;
14847;SDS011;7516;43.570;1.448;2022-08-21T07:07:06;1.20;;;1.10;;
14847;SDS011;7516;43.570;1.448;2022-08-21T07:09:34;1.05;;;0.90;;
14847;SDS011;7516;43.570;1.448;2022-08-21T07:12:01;1.27;;;0.90;;
14847;SDS011;7516;43.570;1.448;2022-08-21T07:14:29;2.05;;;1.25;;
14847;SDS011;7516;43.570;1.448;2022-08-21T07:16:57;1.48;;;1.00;;
14847;SDS011;7516;43.570;1.448;2022-08-21T07:19:25;1.00;;;0.90;;
14847;SDS011;7516;43.570;1.448;2022-08-21T07:21:54;1.10;;;0.80;;
14847;SDS011;7516;43.570;1.448;2022-08-21T07:24:26;1.73;;;1.00;;
14847;SDS011;7516;43.570;1.448;2022-08-21T07:26:54;2.65;;;1.00;;
14847;SDS011;7516;43.570;1.448;2022-08-21T07:29:21;1.27;;;0.93;;
14847;SDS011;7516;43.570;1.448;2022-08-21T07:31:49;1.50;;;0.90;;
14847;SDS011;7516;43.570;1.448;2022-08-21T07:34:16;2.30;;;1.13;;
14847;SDS011;7516;43.570;1.448;2022-08-21T07:36:45;0.80;;;0.80;;
14847;SDS011;7516;43.570;1.448;2022-08-21T07:39:13;1.33;;;0.90;;
14847;SDS011;7516;43.570;1.448;2022-08-21T07:41:41;2.15;;;1.00;;
14847;SDS011;7516;43.570;1.448;2022-08-21T07:44:08;1.08;;;0.80;;
14847;SDS011;7516;43.570;1.448;2022-08-21T07:46:35;1.02;;;0.80;;
14847;SDS011;7516;43.570;1.448;2022-08-21T07:49:03;1.20;;;1.10;;
14847;SDS011;7516;43.570;1.448;2022-08-21T07:51:30;1.13;;;0.80;;
14847;SDS011;7516;43.570;1.448;2022-08-21T07:54:01;1.35;;;0.90;;
14847;SDS011;7516;43.570;1.448;2022-08-21T07:56:30;0.90;;;0.73;;
14847;SDS011;7516;43.570;1.448;2022-08-21T07:58:58;2.25;;;1.10;;
14847;SDS011;7516;43.570;1.448;2022-08-21T08:01:28;0.90;;;0.60;;
14847;SDS011;7516;43.570;1.448;2022-08-21T08:03:55;1.20;;;0.90;;
14847;SDS011;7516;43.570;1.448;2022-08-21T08:06:23;0.80;;;0.80;;
14847;SDS011;7516;43.570;1.448;2022-08-21T08:08:51;2.17;;;0.82;;
14847;SDS011;7516;43.570;1.448;2022-08-21T08:11:20;2.60;;;1.05;;
14847;SDS011;7516;43.570;1.448;2022-08-21T08:13:48;2.25;;;1.00;;
14847;SDS011;7516;43.570;1.448;2022-08-21T08:16:18;1.88;;;0.77;;
14847;SDS011;7516;43.570;1.448;2022-08-21T08:18:45;0.88;;;0.85;;
14847;SDS011;7516;43.570;1.448;2022-08-21T08:21:13;1.42;;;1.10;;
14847;SDS011;7516;43.570;1.448;2022-08-21T08:23:41;0.98;;;0.95;;
14847;SDS011;7516;43.570;1.448;2022-08-21T08:26:10;0.90;;;0.73;;
14847;SDS011;7516;43.570;1.448;2022-08-21T08:28:39;2.25;;;0.88;;
14847;SDS011;7516;43.570;1.448;2022-08-21T08:31:06;0.93;;;0.80;;
14847;SDS011;7516;43.570;1.448;2022-08-21T08:33:34;1.05;;;0.95;;
14847;SDS011;7516;43.570;1.448;2022-08-21T08:36:01;1.00;;;0.90;;
14847;SDS011;7516;43.570;1.448;2022-08-21T08:38:29;0.95;;;0.90;;
14847;SDS011;7516;43.570;1.448;2022-08-21T08:41:00;1.63;;;1.10;;
14847;SDS011;7516;43.570;1.448;2022-08-21T08:43:39;3.00;;;1.20;;
14847;SDS011;7516;43.570;1.448;2022-08-21T08:46:11;2.15;;;1.00;;
14847;SDS011;7516;43.570;1.448;2022-08-21T08:48:43;0.93;;;0.65;;
14847;SDS011;7516;43.570;1.448;2022-08-21T08:51:15;1.45;;;0.90;;
14847;SDS011;7516;43.570;1.448;2022-08-21T08:53:48;1.85;;;0.80;;
14847;SDS011;7516;43.570;1.448;2022-08-21T08:56:21;0.77;;;0.77;;
14847;SDS011;7516;43.570;1.448;2022-08-21T08:58:55;1.25;;;0.75;;
14847;SDS011;7516;43.570;1.448;2022-08-21T09:01:26;3.78;;;1.00;;
14847;SDS011;7516;43.570;1.448;2022-08-21T09:03:54;2.05;;;1.05;;
14847;SDS011;7516;43.570;1.448;2022-08-21T09:06:26;1.00;;;0.90;;
14847;SDS011;7516;43.570;1.448;2022-08-21T09:09:04;1.00;;;0.90;;
14847;SDS011;7516;43.570;1.448;2022-08-21T09:11:42;0.80;;;0.80;;
14847;SDS011;7516;43.570;1.448;2022-08-21T09:14:16;0.80;;;0.80;;
14847;SDS011;7516;43.570;1.448;2022-08-21T09:16:55;1.75;;;0.90;;
14847;SDS011;7516;43.570;1.448;2022-08-21T09:19:35;2.08;;;0.73;;
14847;SDS011;7516;43.570;1.448;2022-08-21T09:22:17;0.70;;;0.70;;
14847;SDS011;7516;43.570;1.448;2022-08-21T09:24:53;1.60;;;0.90;;
14847;SDS011;7516;43.570;1.448;2022-08-21T09:27:28;1.80;;;0.63;;
14847;SDS011;7516;43.570;1.448;2022-08-21T09:29:59;0.60;;;0.60;;
14847;SDS011;7516;43.570;1.448;2022-08-21T09:32:28;0.70;;;0.70;;
14847;SDS011;7516;43.570;1.448;2022-08-21T09:34:57;0.93;;;0.60;;
14847;SDS011;7516;43.570;1.448;2022-08-21T09:37:33;0.90;;;0.63;;
14847;SDS011;7516;43.570;1.448;2022-08-21T09:40:15;0.85;;;0.80;;
14847;SDS011;7516;43.570;1.448;2022-08-21T09:42:53;1.02;;;0.85;;
14847;SDS011;7516;43.570;1.448;2022-08-21T09:45:23;1.45;;;0.77;;
14847;SDS011;7516;43.570;1.448;2022-08-21T09:47:50;0.70;;;0.70;;
14847;SDS011;7516;43.570;1.448;2022-08-21T09:50:20;0.77;;;0.70;;
14847;SDS011;7516;43.570;1.448;2022-08-21T09:52:51;1.58;;;0.82;;
14847;SDS011;7516;43.570;1.448;2022-08-21T09:55:24;1.17;;;0.80;;
14847;SDS011;7516;43.570;1.448;2022-08-21T09:58:15;0.70;;;0.63;;
14847;SDS011;7516;43.570;1.448;2022-08-21T10:00:45;1.00;;;0.80;;
14847;SDS011;7516;43.570;1.448;2022-08-21T10:03:24;1.33;;;0.80;;
14847;SDS011;7516;43.570;1.448;2022-08-21T10:05:54;1.67;;;0.70;;
14847;SDS011;7516;43.570;1.448;2022-08-21T10:08:25;0.70;;;0.70;;
14847;SDS011;7516;43.570;1.448;2022-08-21T10:10:55;0.70;;;0.60;;
14847;SDS011;7516;43.570;1.448;2022-08-21T10:13:30;0.80;;;0.60;;
14847;SDS011;7516;43.570;1.448;2022-08-21T10:16:27;0.80;;;0.70;;
14847;SDS011;7516;43.570;1.448;2022-08-21T10:19:07;2.70;;;0.60;;
14847;SDS011;7516;43.570;1.448;2022-08-21T10:21:45;1.00;;;0.70;;
14847;SDS011;7516;43.570;1.448;2022-08-21T10:24:25;0.60;;;0.60;;
14847;SDS011;7516;43.570;1.448;2022-08-21T10:27:02;0.65;;;0.63;;
14847;SDS011;7516;43.570;1.448;2022-08-21T10:29:43;0.85;;;0.60;;
14847;SDS011;7516;43.570;1.448;2022-08-21T10:32:22;0.77;;;0.50;;
14847;SDS011;7516;43.570;1.448;2022-08-21T10:35:02;1.23;;;0.70;;
14847;SDS011;7516;43.570;1.448;2022-08-21T10:37:40;1.83;;;0.80;;
14847;SDS011;7516;43.570;1.448;2022-08-21T10:40:20;1.00;;;0.70;;
14847;SDS011;7516;43.570;1.448;2022-08-21T10:42:56;0.98;;;0.70;;
14847;SDS011;7516;43.570;1.448;2022-08-21T10:45:42;0.93;;;0.80;;
14847;SDS011;7516;43.570;1.448;2022-08-21T10:48:25;1.33;;;0.80;;
14847;SDS011;7516;43.570;1.448;2022-08-21T10:51:01;0.70;;;0.68;;
14847;SDS011;7516;43.570;1.448;2022-08-21T10:53:39;2.38;;;0.80;;
14847;SDS011;7516;43.570;1.448;2022-08-21T10:56:14;0.70;;;0.68;;
14847;SDS011;7516;43.570;1.448;2022-08-21T10:58:46;0.65;;;0.50;;
14847;SDS011;7516;43.570;1.448;2022-08-21T11:01:30;1.35;;;0.57;;
14847;SDS011;7516;43.570;1.448;2022-08-21T11:04:09;1.63;;;0.60;;
14847;SDS011;7516;43.570;1.448;2022-08-21T11:06:42;0.80;;;0.50;;
14847;SDS011;7516;43.570;1.448;2022-08-21T11:09:14;0.82;;;0.80;;
14847;SDS011;7516;43.570;1.448;2022-08-21T11:11:45;0.60;;;0.60;;
14847;SDS011;7516;43.570;1.448;2022-08-21T11:14:20;1.13;;;0.70;;
14847;SDS011;7516;43.570;1.448;2022-08-21T11:16:57;1.00;;;0.63;;
14847;SDS011;7516;43.570;1.448;2022-08-21T11:19:34;1.02;;;0.73;;
14847;SDS011;7516;43.570;1.448;2022-08-21T11:22:16;1.05;;;0.75;;
14847;SDS011;7516;43.570;1.448;2022-08-21T11:24:51;1.90;;;0.70;;
14847;SDS011;7516;43.570;1.448;2022-08-21T11:27:24;0.90;;;0.70;;
14847;SDS011;7516;43.570;1.448;2022-08-21T11:29:57;1.75;;;0.60;;
14847;SDS011;7516;43.570;1.448;2022-08-21T11:32:41;0.85;;;0.68;;
14847;SDS011;7516;43.570;1.448;2022-08-21T11:35:26;1.65;;;1.00;;
14847;SDS011;7516;43.570;1.448;2022-08-21T11:38:07;1.52;;;0.70;;
14847;SDS011;7516;43.570;1.448;2022-08-21T11:40:46;1.25;;;0.80;;
14847;SDS011;7516;43.570;1.448;2022-08-21T11:43:22;0.68;;;0.68;;
14847;SDS011;7516;43.570;1.448;2022-08-21T11:46:00;1.05;;;0.80;;
14847;SDS011;7516;43.570;1.448;2022-08-21T11:48:44;1.30;;;0.70;;
14847;SDS011;7516;43.570;1.448;2022-08-21T11:51:26;1.38;;;0.77;;
14847;SDS011;7516;43.570;1.448;2022-08-21T11:54:03;1.30;;;0.80;;
14847;SDS011;7516;43.570;1.448;2022-08-21T11:56:37;0.88;;;0.80;;
14847;SDS011;7516;43.570;1.448;2022-08-21T11:59:09;1.00;;;0.60;;
14847;SDS011;7516;43.570;1.448;2022-08-21T12:01:43;1.10;;;0.75;;
14847;SDS011;7516;43.570;1.448;2022-08-21T12:04:17;1.40;;;0.70;;
14847;SDS011;7516;43.570;1.448;2022-08-21T12:06:50;1.73;;;0.75;;
14847;SDS011;7516;43.570;1.448;2022-08-21T12:09:29;1.00;;;0.70;;
14847;SDS011;7516;43.570;1.448;2022-08-21T12:12:01;0.70;;;0.68;;
14847;SDS011;7516;43.570;1.448;2022-08-21T12:14:37;0.70;;;0.70;;
14847;SDS011;7516;43.570;1.448;2022-08-21T12:17:08;0.80;;;0.75;;
14847;SDS011;7516;43.570;1.448;2022-08-21T12:19:44;2.03;;;0.70;;
14847;SDS011;7516;43.570;1.448;2022-08-21T12:22:30;1.00;;;0.75;;
14847;SDS011;7516;43.570;1.448;2022-08-21T12:25:05;0.70;;;0.70;;
14847;SDS011;7516;43.570;1.448;2022-08-21T12:27:41;1.27;;;0.77;;
14847;SDS011;7516;43.570;1.448;2022-08-21T12:30:19;0.80;;;0.73;;
14847;SDS011;7516;43.570;1.448;2022-08-21T12:33:00;1.70;;;0.68;;
14847;SDS011;7516;43.570;1.448;2022-08-21T12:35:31;1.45;;;0.80;;
14847;SDS011;7516;43.570;1.448;2022-08-21T12:38:06;1.60;;;0.77;;
14847;SDS011;7516;43.570;1.448;2022-08-21T12:40:41;1.00;;;0.68;;
14847;SDS011;7516;43.570;1.448;2022-08-21T12:43:14;2.35;;;0.60;;
14847;SDS011;7516;43.570;1.448;2022-08-21T12:45:46;3.53;;;0.65;;
14847;SDS011;7516;43.570;1.448;2022-08-21T12:48:18;1.60;;;0.70;;
14847;SDS011;7516;43.570;1.448;2022-08-21T12:50:49;1.10;;;0.80;;
14847;SDS011;7516;43.570;1.448;2022-08-21T12:53:23;1.00;;;0.63;;
14847;SDS011;7516;43.570;1.448;2022-08-21T12:55:54;0.85;;;0.80;;
14847;SDS011;7516;43.570;1.448;2022-08-21T12:58:26;0.50;;;0.50;;
14847;SDS011;7516;43.570;1.448;2022-08-21T13:00:56;0.70;;;0.70;;
14847;SDS011;7516;43.570;1.448;2022-08-21T13:03:27;0.75;;;0.60;;
14847;SDS011;7516;43.570;1.448;2022-08-21T13:05:55;1.10;;;0.70;;
14847;SDS011;7516;43.570;1.448;2022-08-21T13:08:26;0.90;;;0.60;;
14847;SDS011;7516;43.570;1.448;2022-08-21T13:10:57;0.80;;;0.63;;
14847;SDS011;7516;43.570;1.448;2022-08-21T13:13:27;0.75;;;0.63;;
14847;SDS011;7516;43.570;1.448;2022-08-21T13:15:59;0.80;;;0.80;;
14847;SDS011;7516;43.570;1.448;2022-08-21T13:18:30;0.70;;;0.50;;
14847;SDS011;7516;43.570;1.448;2022-08-21T13:21:03;1.23;;;0.60;;
14847;SDS011;7516;43.570;1.448;2022-08-21T13:23:34;2.22;;;0.70;;
14847;SDS011;7516;43.570;1.448;2022-08-21T13:26:11;0.60;;;0.60;;
14847;SDS011;7516;43.570;1.448;2022-08-21T13:28:39;0.80;;;0.63;;
14847;SDS011;7516;43.570;1.448;2022-08-21T13:31:09;1.17;;;0.60;;
14847;SDS011;7516;43.570;1.448;2022-08-21T13:33:38;2.25;;;0.90;;
14847;SDS011;7516;43.570;1.448;2022-08-21T13:36:09;0.85;;;0.77;;
14847;SDS011;7516;43.570;1.448;2022-08-21T13:38:41;1.98;;;0.73;;
14847;SDS011;7516;43.570;1.448;2022-08-21T13:41:13;1.40;;;0.88;;
14847;SDS011;7516;43.570;1.448;2022-08-21T13:43:48;0.73;;;0.73;;
14847;SDS011;7516;43.570;1.448;2022-08-21T13:46:17;0.90;;;0.60;;
14847;SDS011;7516;43.570;1.448;2022-08-21T13:48:48;1.73;;;0.80;;
14847;SDS011;7516;43.570;1.448;2022-08-21T13:51:16;1.02;;;0.93;;
14847;SDS011;7516;43.570;1.448;2022-08-21T13:53:46;1.00;;;0.90;;
14847;SDS011;7516;43.570;1.448;2022-08-21T13:56:23;1.48;;;1.00;;
14847;SDS011;7516;43.570;1.448;2022-08-21T13:58:54;0.98;;;0.88;;
14847;SDS011;7516;43.570;1.448;2022-08-21T14:01:23;1.33;;;0.98;;
14847;SDS011;7516;43.570;1.448;2022-08-21T14:03:54;1.00;;;0.90;;
14847;SDS011;7516;43.570;1.448;2022-08-21T14:06:26;2.13;;;1.00;;
14847;SDS011;7516;43.570;1.448;2022-08-21T14:09:01;1.15;;;1.00;;
14847;SDS011;7516;43.570;1.448;2022-08-21T14:11:36;1.10;;;1.00;;
14847;SDS011;7516;43.570;1.448;2022-08-21T14:14:05;2.17;;;1.00;;
14847;SDS011;7516;43.570;1.448;2022-08-21T14:16:46;1.25;;;1.00;;
14847;SDS011;7516;43.570;1.448;2022-08-21T14:19:21;1.58;;;1.30;;
14847;SDS011;7516;43.570;1.448;2022-08-21T14:21:50;10.38;;;1.70;;
14847;SDS011;7516;43.570;1.448;2022-08-21T14:24:26;1.48;;;1.10;;
14847;SDS011;7516;43.570;1.448;2022-08-21T14:26:56;2.00;;;1.10;;
14847;SDS011;7516;43.570;1.448;2022-08-21T14:29:32;2.22;;;1.15;;
14847;SDS011;7516;43.570;1.448;2022-08-21T14:32:08;2.05;;;1.35;;
14847;SDS011;7516;43.570;1.448;2022-08-21T14:34:39;1.52;;;1.42;;
14847;SDS011;7516;43.570;1.448;2022-08-21T14:37:06;1.92;;;1.00;;
14847;SDS011;7516;43.570;1.448;2022-08-21T14:39:35;1.95;;;1.02;;
14847;SDS011;7516;43.570;1.448;2022-08-21T14:42:03;1.40;;;1.30;;
14847;SDS011;7516;43.570;1.448;2022-08-21T14:44:31;2.25;;;1.00;;
14847;SDS011;7516;43.570;1.448;2022-08-21T14:46:59;1.80;;;1.20;;
14847;SDS011;7516;43.570;1.448;2022-08-21T14:49:27;1.40;;;1.20;;
14847;SDS011;7516;43.570;1.448;2022-08-21T14:51:55;1.48;;;1.30;;
14847;SDS011;7516;43.570;1.448;2022-08-21T14:54:23;1.30;;;1.20;;
14847;SDS011;7516;43.570;1.448;2022-08-21T14:56:53;4.13;;;1.10;;
14847;SDS011;7516;43.570;1.448;2022-08-21T14:59:21;1.75;;;1.10;;
14847;SDS011;7516;43.570;1.448;2022-08-21T15:01:50;1.65;;;1.20;;
14847;SDS011;7516;43.570;1.448;2022-08-21T15:04:18;2.55;;;1.20;;
14847;SDS011;7516;43.570;1.448;2022-08-21T15:06:45;1.38;;;1.15;;
14847;SDS011;7516;43.570;1.448;2022-08-21T15:09:13;2.38;;;1.30;;
14847;SDS011;7516;43.570;1.448;2022-08-21T15:11:41;1.55;;;1.30;;
14847;SDS011;7516;43.570;1.448;2022-08-21T15:14:10;1.40;;;1.30;;
14847;SDS011;7516;43.570;1.448;2022-08-21T15:16:43;2.47;;;1.40;;
14847;SDS011;7516;43.570;1.448;2022-08-21T15:19:11;1.50;;;1.40;;
14847;SDS011;7516;43.570;1.448;2022-08-21T15:21:39;2.53;;;1.40;;